• Join FlightAware (Why Join?)
  • Login
  • US Flag 
09:16AM EDT


 

Airport Tracker/Info


-or-


 

Live Flight TrackerFlight Track Log ✈ CCA4121 ✈ 30-Jun-2013 ✈ ZUJZ / JZH - ZBAA / PEK

Flight Track Log - Related Links

Times and Time Zones

All times are in EDT time to prevent confusion due to time zone crossing. See the CCA4121 flight status page for this flight to view local times or setup timezone preferences in your user account.

Time Position Orientation Groundspeed Altitude Reporting Facility
EDT Latitude Longitude Course Direction KTS MPH feet Rate Location/Type
01:17PM 33.0949 104.0400 51° Northeast  Level Estimated
01:18PM 33.1543 104.1295 52° Northeast  Level Estimated
01:19PM 33.2135 104.2192 52° Northeast  Level Estimated
01:20PM 33.2727 104.3089 52° Northeast  Level Estimated
01:21PM 33.3318 104.3988 52° Northeast  Level Estimated
01:22PM 33.3909 104.4889 52° Northeast  Level Estimated
01:23PM 33.4499 104.5790 52° Northeast  Level Estimated
01:24PM 33.5089 104.6693 52° Northeast  Level Estimated
01:25PM 33.5677 104.7597 52° Northeast  Level Estimated
01:26PM 33.6265 104.8502 52° Northeast  Level Estimated
01:27PM 33.6853 104.9409 52° Northeast  Level Estimated
01:28PM 33.7439 105.0316 52° Northeast  Level Estimated
01:29PM 33.8025 105.1225 52° Northeast  Level Estimated
01:30PM 33.8611 105.2135 52° Northeast  Level Estimated
01:31PM 33.9196 105.3047 52° Northeast  Level Estimated
01:32PM 33.9780 105.3960 52° Northeast  Level Estimated
01:33PM 34.0363 105.4873 52° Northeast  Level Estimated
01:34PM 34.0946 105.5789 52° Northeast  Level Estimated
01:35PM 34.1528 105.6705 52° Northeast  Level Estimated
01:36PM 34.2109 105.7623 53° Northeast  Level Estimated
01:37PM 34.2690 105.8542 53° Northeast  Level Estimated
01:38PM 34.3270 105.9462 53° Northeast  Level Estimated
01:39PM 34.3849 106.0383 53° Northeast  Level Estimated
01:40PM 34.4427 106.1306 53° Northeast  Level Estimated
01:41PM 34.5005 106.2230 53° Northeast  Level Estimated
01:42PM 34.5583 106.3156 53° Northeast  Level Estimated
01:43PM 34.6159 106.4082 53° Northeast  Level Estimated
01:44PM 34.6735 106.5010 53° Northeast  Level Estimated
01:45PM 34.7310 106.5939 53° Northeast  Level Estimated
01:46PM 34.7884 106.6870 53° Northeast  Level Estimated
01:47PM 34.8458 106.7802 53° Northeast  Level Estimated
01:48PM 34.9031 106.8735 53° Northeast  Level Estimated
01:49PM 34.9603 106.9669 53° Northeast  Level Estimated
01:50PM 35.0175 107.0605 53° Northeast  Level Estimated
01:51PM 35.0746 107.1542 53° Northeast  Level Estimated
01:52PM 35.1316 107.2480 53° Northeast  Level Estimated
01:53PM 35.1885 107.3420 53° Northeast  Level Estimated
01:54PM 35.2454 107.4361 53° Northeast  Level Estimated
01:55PM 35.3022 107.5303 54° Northeast  Level Estimated
01:56PM 35.3589 107.6246 54° Northeast  Level Estimated
01:57PM 35.4155 107.7191 54° Northeast  Level Estimated
01:58PM 35.4721 107.8138 54° Northeast  Level Estimated
01:59PM 35.5286 107.9085 54° Northeast  Level Estimated
02:00PM 35.5850 108.0034 54° Northeast  Level Estimated
02:01PM 35.6413 108.0984 54° Northeast  Level Estimated
02:02PM 35.6976 108.1936 54° Northeast  Level Estimated
02:03PM 35.7538 108.2889 54° Northeast  Level Estimated
02:04PM 35.8099 108.3843 54° Northeast  Level Estimated
02:05PM 35.8660 108.4799 54° Northeast  Level Estimated
02:06PM 35.9220 108.5756 54° Northeast  Level Estimated
02:07PM 35.9779 108.6714 54° Northeast  Level Estimated
02:08PM 36.0337 108.7674 54° Northeast  Level Estimated
02:09PM 36.0894 108.8635 54° Northeast  Level Estimated
02:10PM 36.1451 108.9597 54° Northeast  Level Estimated
02:11PM 36.2007 109.0561 54° Northeast  Level Estimated
02:12PM 36.2562 109.1526 54° Northeast  Level Estimated
02:13PM 36.3116 109.2492 55° Northeast  Level Estimated
02:14PM 36.3670 109.3460 55° Northeast  Level Estimated
02:15PM 36.4222 109.4430 55° Northeast  Level Estimated
02:16PM 36.4775 109.5400 55° Northeast  Level Estimated
02:17PM 36.5326 109.6372 55° Northeast  Level Estimated
02:18PM 36.5876 109.7346 55° Northeast  Level Estimated
02:19PM 36.6426 109.8320 55° Northeast  Level Estimated
02:20PM 36.6974 109.9297 55° Northeast  Level Estimated
02:21PM 36.7523 110.0274 55° Northeast  Level Estimated
02:22PM 36.8070 110.1253 55° Northeast  Level Estimated
02:23PM 36.8616 110.2234 55° Northeast  Level Estimated
02:24PM 36.9162 110.3215 55° Northeast  Level Estimated
02:25PM 36.9706 110.4199 55° Northeast  Level Estimated
02:26PM 37.0251 110.5183 55° Northeast  Level Estimated
02:27PM 37.0794 110.6169 55° Northeast  Level Estimated
02:28PM 37.1336 110.7157 55° Northeast  Level Estimated
02:29PM 37.1878 110.8145 55° Northeast  Level Estimated
02:30PM 37.2418 110.9136 56° Northeast  Level Estimated
02:31PM 37.2958 111.0127 56° Northeast  Level Estimated
02:32PM 37.3497 111.1121 56° Northeast  Level Estimated
02:33PM 37.4035 111.2115 56° Northeast  Level Estimated
02:34PM 37.4573 111.3111 56° Northeast  Level Estimated
02:35PM 37.5109 111.4108 56° Northeast  Level Estimated
02:36PM 37.5645 111.5107 56° Northeast  Level Estimated
02:37PM 37.6180 111.6107 56° Northeast  Level Estimated
02:38PM 37.6714 111.7109 56° Northeast  Level Estimated
02:39PM 37.7247 111.8112 56° Northeast  Level Estimated
02:40PM 37.7780 111.9117 56° Northeast  Level Estimated
02:41PM 37.8311 112.0123 56° Northeast  Level Estimated
02:42PM 37.8842 112.1130 56° Northeast  Level Estimated
02:43PM 37.9371 112.2139 56° Northeast  Level Estimated
02:44PM 37.9900 112.3150 56° Northeast  Level Estimated
02:45PM 38.0428 112.4161 56° Northeast  Level Estimated
02:46PM 38.0956 112.5175 57° Northeast  Level Estimated
02:47PM 38.1482 112.6189 57° Northeast  Level Estimated
02:48PM 38.2007 112.7206 57° Northeast  Level Estimated
02:49PM 38.2532 112.8223 57° Northeast  Level Estimated
02:50PM 38.3055 112.9243 57° Northeast  Level Estimated
02:51PM 38.3578 113.0263 57° Northeast  Level Estimated
02:52PM 38.4100 113.1285 57° Northeast  Level Estimated
02:53PM 38.4621 113.2309 57° Northeast  Level Estimated
02:54PM 38.5141 113.3334 57° Northeast  Level Estimated
02:55PM 38.5661 113.4361 57° Northeast  Level Estimated
02:56PM 38.6179 113.5388 57° Northeast  Level Estimated
02:57PM 38.6696 113.6418 57° Northeast  Level Estimated
02:58PM 38.7213 113.7449 57° Northeast  Level Estimated
02:59PM 38.7728 113.8482 57° Northeast  Level Estimated
03:00PM 38.8243 113.9516 57° Northeast  Level Estimated
03:01PM 38.8757 114.0551 57° Northeast  Level Estimated
03:02PM 38.9270 114.1588 58° Northeast  Level Estimated
03:03PM 38.9782 114.2626 58° Northeast  Level Estimated
03:04PM 39.0293 114.3667 58° Northeast  Level Estimated
03:05PM 39.0803 114.4708 58° Northeast  Level Estimated
03:06PM 39.1312 114.5751 58° Northeast  Level Estimated
03:07PM 39.1820 114.6796 58° Northeast  Level Estimated
03:08PM 39.2327 114.7841 58° Northeast  Level Estimated
03:09PM 39.2834 114.8889 58° Northeast  Level Estimated
03:10PM 39.3339 114.9938 58° Northeast  Level Estimated
03:11PM 39.3844 115.0988 58° Northeast  Level Estimated
03:12PM 39.4347 115.2041 58° Northeast  Level Estimated
03:13PM 39.4850 115.3094 58° Northeast  Level Estimated
03:14PM 39.5352 115.4149 58° Northeast  Level Estimated
03:15PM 39.5852 115.5206 58° Northeast  Level Estimated
03:16PM 39.6352 115.6264 58° Northeast  Level Estimated
03:17PM 39.6851 115.7324 59° Northeast  Level Estimated
03:18PM 39.7349 115.8385 59° Northeast  Level Estimated
03:19PM 39.7845 115.9448 59° Northeast  Level Estimated
03:20PM 39.8341 116.0512 59° Northeast  Level Estimated
03:21PM 39.8836 116.1578 59° Northeast  Level Estimated
03:22PM 39.9330 116.2645 59° Northeast  Level Estimated
03:23PM 39.9823 116.3714 59° Northeast  Level Estimated
03:24PM 40.0315 116.4784 59° Northeast  Level Estimated